M I D A S
Marine Information and Data Acquisition System
Tripno 2243 of the Zeeleeuw from 2011-11-10 07:49:08 to 2011-11-10 16:26:49
Back to CruiseResearch ActivitiesStationsMapUnderway DataData graphs

EquipmentUnitsComment
TimeDGPSUTC
LatitudeDGPSDM.mWGS84
LongitudeDGPSDM.mWGS84
HeadingGyrodeg 
SOGDGPSknotsSpeed over ground
COGDGPSdegCourse over ground
DepthEcho soundermeters200 kHz
Missing or incorrect values are displayed as -999
Navigation data collected by the RV Zeeleeuw from 2011-11-10 07:20:09 to 2011-11-10 16:36:01
Time Latitude Longitude Heading SOG COG Depth
2011-11-10 07:21:14 51°13.637 2°56.019 123.9 0.1 16 -999
2011-11-10 07:22:15 51°13.637 2°56.019 123.7 -999 248 -999
2011-11-10 07:23:14 51°13.634 2°56.018 123.4 0.1 241 -999
2011-11-10 07:24:15 51°13.635 2°56.018 124 -999 33 -999
2011-11-10 07:25:15 51°13.636 2°56.018 123.7 -999 133 -999
2011-11-10 07:26:15 51°13.637 2°56.018 124.1 -999 8 -999
2011-11-10 07:27:15 51°13.637 2°56.018 124 -999 80 -999
2011-11-10 07:28:15 51°13.637 2°56.018 123.5 0.1 115 -999
2011-11-10 07:29:15 51°13.636 2°56.018 124.1 0.1 152 -999
2011-11-10 07:30:16 51°13.638 2°56.019 123.9 0.1 346 -999
2011-11-10 07:31:16 51°13.639 2°56.019 123.8 0.1 305 -999
2011-11-10 07:32:14 51°13.635 2°56.019 123.7 -999 336 7.5
2011-11-10 07:33:13 51°13.636 2°56.019 123.8 -999 93 7.3
2011-11-10 07:34:13 51°13.636 2°56.018 123.7 -999 330 7.5
2011-11-10 07:35:13 51°13.636 2°56.018 123.8 -999 303 7.4
2011-11-10 07:36:13 51°13.635 2°56.018 125.7 -999 293 7.3
2011-11-10 07:37:13 51°13.635 2°56.018 125.7 0.1 348 7.3
2011-11-10 07:38:14 51°13.635 2°56.019 125.7 -999 106 7.3
2011-11-10 07:39:14 51°13.636 2°56.019 125.5 -999 341 7.5
2011-11-10 07:40:13 51°13.635 2°56.019 125.8 0.1 94 7.3
2011-11-10 07:41:12 51°13.635 2°56.019 125.7 -999 233 7.4
2011-11-10 07:42:13 51°13.634 2°56.019 126.2 0.1 343 -999
2011-11-10 07:43:12 51°13.634 2°56.02 126.1 0.1 23 7.3
2011-11-10 07:44:13 51°13.633 2°56.019 126 -999 351 7.2
2011-11-10 07:45:12 51°13.632 2°56.019 126 -999 234 7.2
2011-11-10 07:46:12 51°13.635 2°56.019 126.6 -999 353 7.1
2011-11-10 07:47:12 51°13.633 2°56.019 123.3 0.1 230 7.1
2011-11-10 07:48:13 51°13.633 2°56.019 113.3 0.1 168 7
2011-11-10 07:49:12 51°13.635 2°56.008 105.3 1.9 285 7.1
2011-11-10 07:50:16 51°13.652 2°55.919 108.7 4 288 -999
2011-11-10 07:51:16 51°13.69 2°55.812 127.9 5 308 -999
2011-11-10 07:52:16 51°13.749 2°55.712 140.1 5.2 319 -999
2011-11-10 07:53:16 51°13.825 2°55.649 162.7 5.2 342 -999
2011-11-10 07:54:16 51°13.903 2°55.626 182.8 4 1 -999
2011-11-10 07:55:14 51°13.952 2°55.646 212.8 2.6 27 11.1
2011-11-10 07:56:13 51°13.971 2°55.661 251.5 1.2 275 11.1
2011-11-10 07:57:12 51°14.008 2°55.569 314.9 6.5 316 11.6
2011-11-10 07:58:12 51°14.115 2°55.448 327.9 8.5 327 10.4
2011-11-10 07:59:16 51°14.248 2°55.317 329.9 9.1 331 -999
2011-11-10 08:00:16 51°14.382 2°55.19 325.9 9.6 326 -999
2011-11-10 08:01:14 51°14.514 2°55.038 324.8 10.6 321 11.4
2011-11-10 08:02:13 51°14.629 2°54.817 303.8 11.7 296 11.3
2011-11-10 08:03:12 51°14.605 2°54.523 242.1 12.2 242 10
2011-11-10 08:04:12 51°14.494 2°54.227 232.7 13.3 233 9.5
2011-11-10 08:05:12 51°14.359 2°53.947 230.9 13.3 232 9.2
2011-11-10 08:06:13 51°14.215 2°53.671 226.1 13.3 228 9
2011-11-10 08:07:12 51°14.073 2°53.41 228.4 13.3 231 9.1
2011-11-10 08:08:12 51°13.938 2°53.131 230.7 13.3 232 9.2
2011-11-10 08:09:12 51°13.796 2°52.86 227.7 13.3 230 9.4
2011-11-10 08:10:12 51°13.67 2°52.568 238.4 13.4 240 9.6
2011-11-10 08:11:12 51°13.569 2°52.249 244.9 13.4 246 9.8
2011-11-10 08:12:12 51°13.473 2°51.929 243.6 13.4 243 10
2011-11-10 08:13:12 51°13.368 2°51.614 241.8 13.5 243 10.2
2011-11-10 08:14:12 51°13.263 2°51.298 239.4 13.4 240 10.4
2011-11-10 08:15:12 51°13.149 2°50.99 239 13.4 239 10.5
2011-11-10 08:16:12 51°13.041 2°50.679 241.9 13.4 243 10.6
2011-11-10 08:17:12 51°12.94 2°50.36 241.3 13.5 243 10.8
2011-11-10 08:18:12 51°12.836 2°50.043 240.9 13.5 242 10.9
2011-11-10 08:19:12 51°12.727 2°49.73 236.2 13.5 238 11.1
2011-11-10 08:20:13 51°12.612 2°49.415 238.9 13.5 241 11.2
2011-11-10 08:21:12 51°12.515 2°49.1 242.7 13.5 244 11.4
2011-11-10 08:22:12 51°12.411 2°48.784 239.6 13.5 240 11.4
2011-11-10 08:23:12 51°12.298 2°48.474 238.5 13.6 240 11.4
2011-11-10 08:24:12 51°12.19 2°48.162 238.9 13.3 239 11.5
2011-11-10 08:25:12 51°12.096 2°47.838 246.8 13.5 248 11.6
2011-11-10 08:26:12 51°12.006 2°47.51 243.6 13.5 244 11.7
2011-11-10 08:27:12 51°11.905 2°47.19 241.9 13.5 243 11.9
2011-11-10 08:28:12 51°11.812 2°46.864 246.1 13.5 247 11.9
2011-11-10 08:29:12 51°11.72 2°46.537 243.2 13.5 244 12.1
2011-11-10 08:30:12 51°11.617 2°46.217 242.1 13.5 244 11.8
2011-11-10 08:31:12 51°11.523 2°45.893 245.4 13.5 247 11.8
2011-11-10 08:32:12 51°11.43 2°45.57 243.4 13.4 244 11.8
2011-11-10 08:33:12 51°11.329 2°45.254 241.8 13.3 244 11.5
2011-11-10 08:34:12 51°11.231 2°44.936 244.1 13.4 246 11.4
2011-11-10 08:35:12 51°11.153 2°44.604 249.5 13.4 250 11.4
2011-11-10 08:36:12 51°11.073 2°44.273 246.2 13.4 246 11.3
2011-11-10 08:37:12 51°10.987 2°43.947 249.5 13.4 251 11.2
2011-11-10 08:38:12 51°10.916 2°43.612 250.5 13.3 251 11.3
2011-11-10 08:39:12 51°10.84 2°43.28 249.1 13.4 249 11.3
2011-11-10 08:40:12 51°10.758 2°42.954 248.2 13.3 249 11.3
2011-11-10 08:41:12 51°10.672 2°42.633 245.2 13.1 246 11.2
2011-11-10 08:42:12 51°10.586 2°42.312 246 13.1 248 11.2
2011-11-10 08:43:12 51°10.505 2°41.99 247.7 13.1 248 11.2
2011-11-10 08:44:12 51°10.435 2°41.662 251.5 13.1 252 11.3
2011-11-10 08:45:12 51°10.359 2°41.339 247.1 13.1 248 11.3
2011-11-10 08:46:12 51°10.282 2°41.016 251 13.1 252 11.4
2011-11-10 08:47:12 51°10.212 2°40.689 248.7 13.1 249 11.5
2011-11-10 08:48:12 51°10.145 2°40.362 253.8 13 254 11.6
2011-11-10 08:49:12 51°10.081 2°40.03 252 13.2 251 11.8
2011-11-10 08:50:12 51°9.998 2°39.712 245.4 13 246 11.8
2011-11-10 08:51:12 51°9.913 2°39.395 246.9 13 248 11.8
2011-11-10 08:52:12 51°9.835 2°39.074 249 13 250 12.1
2011-11-10 08:53:13 51°9.772 2°38.739 255.6 13 256 12.4
2011-11-10 08:54:12 51°9.718 2°38.41 254.6 13 253 12.9
2011-11-10 08:55:12 51°9.642 2°38.085 250.2 13 252 13.3
2011-11-10 08:56:12 51°9.584 2°37.751 254 13.1 254 14
2011-11-10 08:57:12 51°9.506 2°37.426 247.5 13.1 248 14.3
2011-11-10 08:58:12 51°9.428 2°37.102 248.6 13.1 249 15
2011-11-10 08:59:12 51°9.344 2°36.783 247.5 13.1 249 15.8
2011-11-10 09:00:12 51°9.276 2°36.454 251.9 13.1 252 16.2
2011-11-10 09:01:12 51°9.205 2°36.126 248.1 13.1 247 16.5
2011-11-10 09:02:12 51°9.116 2°35.811 245.4 13 246 16.8
2011-11-10 09:03:12 51°9.046 2°35.484 251.4 13 252 17
2011-11-10 09:04:12 51°8.974 2°35.159 249.8 13 250 17.1
2011-11-10 09:05:12 51°8.892 2°34.84 247.1 13 248 17.1
2011-11-10 09:06:12 51°8.817 2°34.518 251.1 12.9 251 17.8
2011-11-10 09:07:12 51°8.737 2°34.202 246.8 12.9 247 17.8
2011-11-10 09:08:12 51°8.653 2°33.89 244.6 12.7 246 17
2011-11-10 09:09:12 51°8.575 2°33.576 252.1 12.8 252 17
2011-11-10 09:10:12 51°8.521 2°33.252 263.6 12.6 265 16.8
2011-11-10 09:11:12 51°8.543 2°32.924 289.8 12.5 292 18.8
2011-11-10 09:12:12 51°8.67 2°32.667 320.2 12.5 319 19.6
2011-11-10 09:13:12 51°8.855 2°32.549 359.9 11.9 5 19.4
2011-11-10 09:14:12 51°9.018 2°32.721 47.2 12.3 48 17.2
2011-11-10 09:15:12 51°9.164 2°32.951 43.4 12.4 45 15.4
2011-11-10 09:16:12 51°9.299 2°33.197 48.6 12.4 50 14
2011-11-10 09:17:12 51°9.436 2°33.442 46.7 12.4 48 13
2011-11-10 09:18:12 51°9.577 2°33.68 44.3 12.4 46 12.1
2011-11-10 09:19:12 51°9.729 2°33.902 40.1 12.4 42 11.7
2011-11-10 09:20:12 51°9.882 2°34.122 40.4 12.4 42 11.7
2011-11-10 09:21:12 51°10.027 2°34.356 44.8 12.4 47 11.8
2011-11-10 09:22:12 51°10.172 2°34.59 42.8 12.4 44 11.6
2011-11-10 09:23:12 51°10.323 2°34.812 40.4 12.3 43 10.8
2011-11-10 09:24:12 51°10.473 2°35.035 40.8 12.3 42 10.5
2011-11-10 09:25:12 51°10.632 2°35.241 36.4 12.3 38 10.8
2011-11-10 09:26:12 51°10.79 2°35.45 38.8 12.4 41 11
2011-11-10 09:27:13 51°10.959 2°35.641 32.1 12.2 34 11.2
2011-11-10 09:28:12 51°11.116 2°35.843 40 12.3 42 11.1
2011-11-10 09:29:13 51°11.273 2°36.062 39.1 12.4 41 11.4
2011-11-10 09:30:12 51°11.429 2°36.268 38.3 12.3 39 11.7
2011-11-10 09:31:12 51°11.591 2°36.47 34.6 12.4 37 11.8
2011-11-10 09:32:12 51°11.756 2°36.663 35.5 12.4 38 11.9
2011-11-10 09:33:12 51°11.916 2°36.87 38.5 12.3 40 11.9
2011-11-10 09:34:12 51°12.075 2°37.077 36.4 12.4 38 12.3
2011-11-10 09:35:12 51°12.24 2°37.269 34.4 12.3 37 12.4
2011-11-10 09:36:13 51°12.408 2°37.466 35.4 12.1 33 13
2011-11-10 09:37:12 51°12.592 2°37.582 16.8 12.1 19 13.3
2011-11-10 09:38:12 51°12.783 2°37.688 18.8 12.2 21 13.9
2011-11-10 09:39:12 51°12.978 2°37.748 358.5 12 359 14
2011-11-10 09:40:12 51°13.179 2°37.738 356.3 12.1 358 13.4
2011-11-10 09:41:12 51°13.379 2°37.733 1.1 12 4 11.8
2011-11-10 09:42:12 51°13.566 2°37.687 335 11.3 331 11.1
2011-11-10 09:43:12 51°13.684 2°37.454 301.9 11.7 301 16.4
2011-11-10 09:44:12 51°13.755 2°37.161 285.9 11.9 286 20.2
2011-11-10 09:45:12 51°13.814 2°36.858 287.8 11.9 288 22
2011-11-10 09:46:12 51°13.887 2°36.563 287.3 11.8 286 20.2
2011-11-10 09:47:12 51°13.901 2°36.254 271.5 11.6 272 18
2011-11-10 09:48:12 51°13.91 2°35.942 271.7 11.7 273 17.1
2011-11-10 09:49:12 51°13.919 2°35.633 271.5 11.7 272 14.9
2011-11-10 09:50:12 51°13.915 2°35.324 267.9 11.7 269 15.6
2011-11-10 09:51:12 51°13.92 2°35.016 271.1 11.6 271 16.5
2011-11-10 09:52:12 51°13.917 2°34.704 268.5 11.8 269 21.8
2011-11-10 09:53:12 51°13.91 2°34.392 267.4 11.8 268 23.6
2011-11-10 09:54:12 51°13.898 2°34.08 266.8 11.9 268 23.8
2011-11-10 09:55:12 51°13.901 2°33.763 272.9 12 272 23.5
2011-11-10 09:56:12 51°13.898 2°33.445 267.8 12.1 268 25.7
2011-11-10 09:57:12 51°13.899 2°33.125 269.3 12.1 267 26.4
2011-11-10 09:58:12 51°13.89 2°32.806 273.2 11.9 276 26.2
2011-11-10 09:59:12 51°13.99 2°32.544 319.7 11.9 325 26.6
2011-11-10 10:00:12 51°14.183 2°32.502 10.7 12.4 15 25.2
2011-11-10 10:01:12 51°14.373 2°32.646 29.7 12.8 31 24.7
2011-11-10 10:02:12 51°14.548 2°32.84 36.6 12.9 37 24.8
2011-11-10 10:03:12 51°14.721 2°33.042 35.9 12.9 36 25
2011-11-10 10:04:12 51°14.899 2°33.231 32.9 12.8 32 24.7
2011-11-10 10:05:13 51°15.083 2°33.421 33.8 13 33 24.7
2011-11-10 10:06:12 51°15.256 2°33.62 36.3 13.1 37 24.9
2011-11-10 10:07:12 51°15.432 2°33.823 33.9 13 34 24.9
2011-11-10 10:08:12 51°15.612 2°34.018 32.7 13.1 34 25.2
2011-11-10 10:09:12 51°15.781 2°34.234 45.2 13.1 47 24.8
2011-11-10 10:10:12 51°15.921 2°34.503 51.7 13.1 51 26.6
2011-11-10 10:11:12 51°16.056 2°34.778 51.9 13 51 27.1
2011-11-10 10:12:12 51°16.193 2°35.049 51.8 13.1 50 27.7
2011-11-10 10:13:12 51°16.335 2°35.278 33.1 11 29 28
2011-11-10 10:14:13 51°16.495 2°35.247 321 9.5 318 26.8
2011-11-10 10:15:12 51°16.506 2°35.031 246.6 9 246 20.7
2011-11-10 10:16:12 51°16.403 2°34.842 222 10.1 217 19.4
2011-11-10 10:17:12 51°16.242 2°34.699 210.6 11.7 207 20.8
2011-11-10 10:18:12 51°16.072 2°34.551 210.9 11.7 206 23
2011-11-10 10:19:12 51°15.895 2°34.422 206.8 11.7 204 25.4
2011-11-10 10:20:12 51°15.774 2°34.433 147.5 5.6 130 27.1
2011-11-10 10:21:12 51°15.773 2°34.563 59.2 5 56 27.5
2011-11-10 10:22:12 51°15.888 2°34.619 3.7 11.3 8 27.3
2011-11-10 10:23:12 51°16.087 2°34.735 26.3 13.3 28 26.3
2011-11-10 10:24:12 51°16.277 2°34.917 28.8 13.3 30 26.2
2011-11-10 10:25:12 51°16.469 2°35.093 27.8 13.4 30 23.9
2011-11-10 10:26:12 51°16.661 2°35.265 26.5 13.2 28 21.5
2011-11-10 10:27:12 51°16.86 2°35.416 22.7 13.3 25 18.9
2011-11-10 10:28:12 51°17.052 2°35.586 28.1 13.2 30 18
2011-11-10 10:29:12 51°17.244 2°35.756 27.1 13.3 30 17.4
2011-11-10 10:30:12 51°17.438 2°35.906 14.3 12.5 14 16.2
2011-11-10 10:31:12 51°17.633 2°35.866 335 11.7 336 15.1
2011-11-10 10:32:12 51°17.779 2°35.676 309.9 11.5 313 16.8
2011-11-10 10:33:12 51°17.886 2°35.43 286.7 11.2 285 19.8
2011-11-10 10:34:12 51°17.861 2°35.142 251.5 11.3 253 21.5
2011-11-10 10:35:12 51°17.804 2°34.856 248.2 11.2 248 14.7
2011-11-10 10:36:12 51°17.727 2°34.59 241.1 11.2 242 25.3
2011-11-10 10:37:12 51°17.648 2°34.322 243.5 11.2 246 26.8
2011-11-10 10:38:12 51°17.571 2°34.048 243 11.2 243 27.7
2011-11-10 10:39:12 51°17.485 2°33.785 241.5 11.1 241 27.4
2011-11-10 10:40:12 51°17.403 2°33.522 242.3 11.2 243 27.5
2011-11-10 10:41:13 51°17.337 2°33.245 248.3 11.1 250 28.5
2011-11-10 10:42:12 51°17.264 2°32.982 242.8 10.9 243 27.8
2011-11-10 10:43:12 51°17.18 2°32.722 241.6 11.1 242 28.6
2011-11-10 10:44:12 51°17.106 2°32.456 247.4 11.1 250 29.4
2011-11-10 10:45:12 51°17.039 2°32.182 246.7 11.1 248 29.2
2011-11-10 10:46:12 51°16.957 2°31.916 242.8 11.3 243 30.6
2011-11-10 10:47:12 51°16.886 2°31.642 246.5 11.2 246 30.7
2011-11-10 10:48:12 51°16.808 2°31.372 244 11.1 245 30.7
2011-11-10 10:49:12 51°16.722 2°31.106 244 11.3 246 31.4
2011-11-10 10:50:13 51°16.651 2°30.823 246.5 11.4 247 30.2
2011-11-10 10:51:12 51°16.57 2°30.557 241.6 11.3 242 30.6
2011-11-10 10:52:12 51°16.483 2°30.293 240.9 11.2 243 31
2011-11-10 10:53:12 51°16.403 2°30.022 245 11.3 248 31.1
2011-11-10 10:54:12 51°16.34 2°29.74 246.9 11.3 250 31.1
2011-11-10 10:55:12 51°16.267 2°29.466 241.6 11.3 244 31
2011-11-10 10:56:12 51°16.197 2°29.192 245.4 11.1 249 31.1
2011-11-10 10:57:12 51°16.125 2°28.922 241.3 11 244 31
2011-11-10 10:58:12 51°16.056 2°28.652 247.7 11 252 30.9
2011-11-10 10:59:12 51°15.988 2°28.387 243.6 10.8 248 30.8
2011-11-10 11:00:12 51°15.926 2°28.115 245.1 10.9 248 30.2
2011-11-10 11:01:12 51°15.852 2°27.85 243.1 11 248 29.9
2011-11-10 11:02:12 51°15.789 2°27.576 245.4 11 247 29.2
2011-11-10 11:03:12 51°15.713 2°27.309 243.6 11.1 247 27.7
2011-11-10 11:04:12 51°15.634 2°27.041 244.4 11.1 249 24.4
2011-11-10 11:05:12 51°15.578 2°26.762 251 11 254 19.6
2011-11-10 11:06:12 51°15.564 2°26.478 272.5 10.9 278 16.7
2011-11-10 11:07:12 51°15.59 2°26.194 272.4 10.8 276 15.6
2011-11-10 11:08:12 51°15.606 2°25.913 272.5 10.6 277 14
2011-11-10 11:09:12 51°15.618 2°25.632 269.7 10.6 274 14.1
2011-11-10 11:10:12 51°15.639 2°25.352 272.4 10.7 277 16.9
2011-11-10 11:11:12 51°15.672 2°25.074 283.3 10.9 295 17.2
2011-11-10 11:12:12 51°15.816 2°24.881 328.8 12.3 342 23.2
2011-11-10 11:13:12 51°16.029 2°24.898 10.8 13.4 20 28.2
2011-11-10 11:14:13 51°16.226 2°25.091 30.4 13.9 34 28.7
2011-11-10 11:15:12 51°16.415 2°25.291 28.9 13.9 33 29.8
2011-11-10 11:16:12 51°16.613 2°25.48 25 13.9 30 31.7
2011-11-10 11:17:12 51°16.808 2°25.679 31.3 14.1 35 33.5
2011-11-10 11:18:12 51°17.002 2°25.886 28.7 14.1 34 34
2011-11-10 11:19:12 51°17.199 2°26.088 26 14.1 31 34.4
2011-11-10 11:20:12 51°17.397 2°26.288 29.3 14.2 34 35.1
2011-11-10 11:21:13 51°17.601 2°26.482 25.2 14 30 35.2
2011-11-10 11:22:12 51°17.791 2°26.69 30.2 14.1 35 35.3
2011-11-10 11:23:12 51°17.984 2°26.903 28.9 14.1 33 35.4
2011-11-10 11:24:12 51°18.184 2°27.099 27.8 14 32 34.4
2011-11-10 11:25:12 51°18.384 2°27.291 26.8 14.1 30 34.2
2011-11-10 11:26:12 51°18.578 2°27.5 30.3 14 34 35.5
2011-11-10 11:27:12 51°18.772 2°27.706 28.7 14 32 35.9
2011-11-10 11:28:12 51°18.973 2°27.891 25.3 14 29 35.7
2011-11-10 11:29:12 51°19.175 2°28.073 25.7 14 30 35
2011-11-10 11:30:12 51°19.369 2°28.278 32 14.1 34 35.2
2011-11-10 11:31:12 51°19.565 2°28.482 30.5 14.1 33 34.4
2011-11-10 11:32:12 51°19.762 2°28.682 29 14.1 31 33.5
2011-11-10 11:33:12 51°19.965 2°28.863 25.4 14 28 33.5
2011-11-10 11:34:12 51°20.164 2°29.056 31.2 14.1 34 31.9
2011-11-10 11:35:12 51°20.353 2°29.276 38 14.1 40 32.7
2011-11-10 11:36:12 51°20.534 2°29.514 38.1 14 39 32
2011-11-10 11:37:12 51°20.73 2°29.709 21.7 13.8 22 32.2
2011-11-10 11:38:12 51°20.948 2°29.825 15.7 13.8 15 31.2
2011-11-10 11:39:12 51°21.167 2°29.831 344.4 13.1 349 29.2
2011-11-10 11:40:12 51°21.372 2°29.732 331.6 12.8 336 31.9
2011-11-10 11:41:12 51°21.559 2°29.573 324.9 12.7 331 33.5
2011-11-10 11:42:12 51°21.752 2°29.432 331.1 12.7 336 35.5
2011-11-10 11:43:12 51°21.938 2°29.279 325.5 12.5 331 35.4
2011-11-10 11:44:12 51°22.129 2°29.139 329.4 12.7 336 35.5
2011-11-10 11:45:12 51°22.323 2°29.005 330.5 12.7 336 36.3
2011-11-10 11:46:13 51°22.487 2°28.808 309.1 12 315 36
2011-11-10 11:47:12 51°22.62 2°28.577 307.1 12 314 36.9
2011-11-10 11:48:12 51°22.738 2°28.327 298.9 11.8 306 36.8
2011-11-10 11:49:12 51°22.855 2°28.075 299.2 11.6 303 36.9
2011-11-10 11:50:12 51°22.9 2°27.791 269.7 10.9 274 36.8
2011-11-10 11:51:12 51°22.902 2°27.499 266.5 11 271 36.5
2011-11-10 11:52:12 51°22.914 2°27.205 269.6 11.1 274 36.2
2011-11-10 11:53:12 51°22.928 2°26.911 269.1 11 271 36
2011-11-10 11:54:12 51°22.967 2°26.625 288.3 11.5 294 33.1
2011-11-10 11:55:12 51°23.055 2°26.355 296.5 11.4 303 23.7
2011-11-10 11:56:12 51°23.194 2°26.137 316.9 11.9 326 18.7
2011-11-10 11:57:12 51°23.387 2°26.023 345.5 12.9 352 28
2011-11-10 11:58:12 51°23.603 2°26.096 24.9 13.8 28 31.4
2011-11-10 11:59:12 51°23.795 2°26.306 37.9 14 37 32.3
2011-11-10 12:00:12 51°23.981 2°26.533 38.4 14.1 38 31.6
2011-11-10 12:01:12 51°24.175 2°26.739 31.2 13.9 31 31.8
2011-11-10 12:02:12 51°24.37 2°26.943 37.1 14.1 37 31.4
2011-11-10 12:03:12 51°24.56 2°27.159 36.5 14 35 30.7
2011-11-10 12:04:12 51°24.75 2°27.374 35.8 14 35 30
2011-11-10 12:05:12 51°24.946 2°27.576 31.8 14 32 29.1
2011-11-10 12:06:12 51°25.141 2°27.779 35.4 14 35 28.7
2011-11-10 12:07:12 51°25.336 2°27.986 34.2 14 32 27.2
2011-11-10 12:08:12 51°25.535 2°28.177 30.9 13.9 31 28.7
2011-11-10 12:09:12 51°25.728 2°28.387 36.9 14 35 26.2
2011-11-10 12:10:12 51°25.921 2°28.596 31.4 13.9 30 26.6
2011-11-10 12:11:12 51°26.121 2°28.787 31.7 14 32 27.2
2011-11-10 12:12:12 51°26.321 2°28.986 32.7 14.2 32 28
2011-11-10 12:13:12 51°26.511 2°29.206 38.6 14.2 37 28.1
2011-11-10 12:14:12 51°26.705 2°29.419 33.8 14.1 34 29.9
2011-11-10 12:15:12 51°26.897 2°29.639 36.8 14.2 36 30.3
2011-11-10 12:16:12 51°27.095 2°29.843 34.4 14.2 35 30.2
2011-11-10 12:17:12 51°27.286 2°30.066 35.8 14.2 35 28.4
2011-11-10 12:18:12 51°27.485 2°30.272 33.7 14.1 33 31.1
2011-11-10 12:19:12 51°27.683 2°30.477 33.3 14.2 34 29.4
2011-11-10 12:20:12 51°27.875 2°30.702 36.7 14.3 36 31.3
2011-11-10 12:21:12 51°28.067 2°30.922 33.5 14.1 34 34.6
2011-11-10 12:22:12 51°28.262 2°31.133 35.7 14.1 37 33.6
2011-11-10 12:23:12 51°28.452 2°31.354 35.7 14.1 36 33
2011-11-10 12:24:12 51°28.646 2°31.565 30.4 14 31 30
2011-11-10 12:25:12 51°28.844 2°31.767 34.9 14.1 37 28.7
2011-11-10 12:26:12 51°29.034 2°31.992 35.9 14.3 37 29.8
2011-11-10 12:27:12 51°29.223 2°32.217 33.4 14.1 34 30.3
2011-11-10 12:28:12 51°29.418 2°32.421 30.5 14.1 32 28.1
2011-11-10 12:29:12 51°29.612 2°32.635 36.7 14.1 38 26.6
2011-11-10 12:30:12 51°29.798 2°32.864 35.2 14.1 37 25.6
2011-11-10 12:31:12 51°29.987 2°33.08 32 13.7 32 26
2011-11-10 12:32:12 51°30.2 2°33.192 9.3 13.6 12 22.3
2011-11-10 12:33:12 51°30.421 2°33.284 11.9 13.8 16 21.8
2011-11-10 12:34:12 51°30.638 2°33.407 17 13.9 21 21.5
2011-11-10 12:35:12 51°30.856 2°33.518 13 13.7 18 20.7
2011-11-10 12:36:12 51°31.074 2°33.627 14.1 13.8 18 22.1
2011-11-10 12:37:12 51°31.292 2°33.75 14.4 13.9 18 20.9
2011-11-10 12:38:12 51°31.512 2°33.861 15.8 14 19 23.9
2011-11-10 12:39:12 51°31.731 2°33.974 14 13.9 19 22.4
2011-11-10 12:40:12 51°31.951 2°34.084 14.2 14 19 21.4
2011-11-10 12:41:12 51°32.171 2°34.203 15.1 13.9 19 22.3
2011-11-10 12:42:12 51°32.39 2°34.328 16 14 19 23.7
2011-11-10 12:43:12 51°32.61 2°34.441 14.2 13.9 19 22.3
2011-11-10 12:44:12 51°32.833 2°34.556 13.9 14.1 19 22.9
2011-11-10 12:45:12 51°33.054 2°34.675 12 13.9 15 24.2
2011-11-10 12:46:12 51°33.279 2°34.779 14.6 14.2 21 25.1
2011-11-10 12:47:12 51°33.501 2°34.837 350.5 13.5 358 24.3
2011-11-10 12:48:12 51°33.717 2°34.768 334.4 13.1 341 26.2
2011-11-10 12:49:12 51°33.921 2°34.64 332.5 13.2 339 30.6
2011-11-10 12:50:12 51°34.131 2°34.528 334.2 13.3 341 30.6
2011-11-10 12:51:12 51°34.343 2°34.425 336.9 13.3 346 36.3
2011-11-10 12:52:12 51°34.567 2°34.438 5.1 13.7 11 36.8
2011-11-10 12:53:12 51°34.791 2°34.509 8.8 13.7 13 37.4
2011-11-10 12:54:12 51°35.016 2°34.586 11.4 13.8 14 37.8
2011-11-10 12:55:12 51°35.237 2°34.68 11.6 13.8 15 37.7
2011-11-10 12:56:12 51°35.46 2°34.766 9.9 13.9 13 39.2
2011-11-10 12:57:12 51°35.685 2°34.839 7 13.8 11 38.9
2011-11-10 12:58:12 51°35.908 2°34.923 12.3 13.8 15 39.6
2011-11-10 12:59:12 51°36.129 2°35.012 10.2 13.6 13 36.9
2011-11-10 13:00:12 51°36.351 2°35.091 7.6 13.6 11 37.3
2011-11-10 13:01:12 51°36.574 2°35.16 8.8 13.7 11 35.6
2011-11-10 13:02:12 51°36.796 2°35.245 11.5 13.6 14 37.3
2011-11-10 13:03:12 51°37.018 2°35.32 5.9 13.6 10 39
2011-11-10 13:04:12 51°37.24 2°35.391 10.8 13.6 14 39.1
2011-11-10 13:05:12 51°37.461 2°35.476 11.1 13.6 13 37.6
2011-11-10 13:06:12 51°37.683 2°35.55 10.3 13.7 13 36.9
2011-11-10 13:07:12 51°37.904 2°35.62 5.9 13.5 10 36.6
2011-11-10 13:08:12 51°38.123 2°35.639 346.3 12.9 348 36.3
2011-11-10 13:09:12 51°38.273 2°35.439 293.2 11.6 297 35
2011-11-10 13:10:12 51°38.331 2°35.148 272.8 11 273 23.6
2011-11-10 13:11:12 51°38.295 2°34.867 250.7 10.9 255 21.7
2011-11-10 13:12:12 51°38.237 2°34.595 243.1 10.8 246 24.5
2011-11-10 13:13:12 51°38.175 2°34.323 243.2 10.7 248 29.5
2011-11-10 13:14:12 51°38.078 2°34.084 229.4 10.7 234 30.4
2011-11-10 13:15:12 51°37.98 2°33.844 234.9 10.7 240 34.4
2011-11-10 13:16:12 51°37.873 2°33.617 226.9 10.8 229 38.3
2011-11-10 13:17:12 51°37.757 2°33.4 223.7 10.6 226 40.4
2011-11-10 13:18:12 51°37.637 2°33.19 225.3 10.6 228 41
2011-11-10 13:19:12 51°37.519 2°32.978 227.2 10.8 232 41.1
2011-11-10 13:20:12 51°37.411 2°32.75 229.3 10.7 234 40.5
2011-11-10 13:21:12 51°37.296 2°32.533 224.3 10.7 229 41.6
2011-11-10 13:22:12 51°37.177 2°32.32 226.3 10.8 232 41.5
2011-11-10 13:23:12 51°37.067 2°32.096 229 10.8 233 41.1
2011-11-10 13:24:12 51°36.948 2°31.882 226.4 10.8 229 43
2011-11-10 13:25:12 51°36.826 2°31.668 223 10.8 225 42.7
2011-11-10 13:26:12 51°36.704 2°31.453 225.4 10.9 228 41.4
2011-11-10 13:27:12 51°36.588 2°31.229 227.5 11 232 40.1
2011-11-10 13:28:12 51°36.47 2°31.009 224.1 10.9 225 40.1
2011-11-10 13:29:12 51°36.348 2°30.793 228.6 10.9 231 38.4
2011-11-10 13:30:12 51°36.231 2°30.571 225.4 10.8 227 38
2011-11-10 13:31:12 51°36.105 2°30.367 223.5 10.8 225 36.6
2011-11-10 13:32:12 51°35.983 2°30.154 229.4 10.9 233 38.3
2011-11-10 13:33:12 51°35.866 2°29.933 224.8 10.9 226 37.7
2011-11-10 13:34:12 51°35.75 2°29.708 228.9 11 231 38.5
2011-11-10 13:35:12 51°35.624 2°29.499 219.4 10.9 219 37
2011-11-10 13:36:12 51°35.484 2°29.311 220.4 11 222 35.9
2011-11-10 13:37:12 51°35.352 2°29.107 221.5 11 221 37.5
2011-11-10 13:38:12 51°35.215 2°28.917 221.7 10.9 223 37.2
2011-11-10 13:39:12 51°35.084 2°28.714 223.3 10.9 225 35.9
2011-11-10 13:40:12 51°34.951 2°28.514 220 11 221 34.7
2011-11-10 13:41:12 51°34.818 2°28.316 222.9 10.8 226 37.8
2011-11-10 13:42:12 51°34.686 2°28.116 219.7 11 219 37.5
2011-11-10 13:43:12 51°34.548 2°27.924 220.1 11.1 222 37.8
2011-11-10 13:44:12 51°34.417 2°27.716 222.2 11 223 36.3
2011-11-10 13:45:12 51°34.278 2°27.525 217.8 11 220 37.7
2011-11-10 13:46:12 51°34.143 2°27.325 222.4 11 223 38
2011-11-10 13:47:12 51°34.013 2°27.119 224.3 11 226 38.6
2011-11-10 13:48:12 51°33.882 2°26.914 219.1 10.9 220 37.5
2011-11-10 13:49:12 51°33.745 2°26.721 222.4 11 226 39.1
2011-11-10 13:50:12 51°33.611 2°26.516 220.3 11.1 222 37.7
2011-11-10 13:51:12 51°33.476 2°26.321 220.9 10.9 226 34.8
2011-11-10 13:52:12 51°33.344 2°26.122 218.7 10.9 222 36.2
2011-11-10 13:53:12 51°33.212 2°25.92 223.6 11 228 38.8
2011-11-10 13:54:12 51°33.086 2°25.705 223.6 11.1 227 36.3
2011-11-10 13:55:12 51°32.955 2°25.5 222.8 11.1 224 36.4
2011-11-10 13:56:12 51°32.819 2°25.298 221 11.1 224 35.7
2011-11-10 13:57:12 51°32.687 2°25.091 221.8 11 224 36
2011-11-10 13:58:12 51°32.551 2°24.894 218.2 11 219 37.3
2011-11-10 13:59:12 51°32.415 2°24.694 223.3 11.1 225 33.9
2011-11-10 14:00:12 51°32.281 2°24.488 221.9 11.2 226 34
2011-11-10 14:01:12 51°32.153 2°24.273 221.9 11.1 223 34
2011-11-10 14:02:12 51°32.017 2°24.074 222 11.2 225 35.8
2011-11-10 14:03:12 51°31.886 2°23.862 219 11.3 223 35.6
2011-11-10 14:04:12 51°31.747 2°23.665 217.9 11.1 221 34.4
2011-11-10 14:05:12 51°31.586 2°23.532 197.9 11 197 34.3
2011-11-10 14:06:12 51°31.405 2°23.46 193.6 11.2 193 34.4
2011-11-10 14:07:12 51°31.228 2°23.373 195.3 10.9 190 34.1
2011-11-10 14:08:12 51°31.043 2°23.382 176.2 11.3 175 33.4
2011-11-10 14:09:12 51°30.855 2°23.404 180.6 11.2 179 36.4
2011-11-10 14:10:12 51°30.666 2°23.427 175.2 11.4 174 36.8
2011-11-10 14:11:12 51°30.478 2°23.44 182.3 11.2 181 37.6
2011-11-10 14:12:12 51°30.291 2°23.442 178.9 11.3 176 37.8
2011-11-10 14:13:12 51°30.103 2°23.454 181.4 11.2 181 36.8
2011-11-10 14:14:12 51°29.916 2°23.47 178.4 11.3 178 39.2
2011-11-10 14:15:12 51°29.726 2°23.467 181.7 11.5 179 40.4
2011-11-10 14:16:12 51°29.535 2°23.477 177 11.5 177 40
2011-11-10 14:17:12 51°29.343 2°23.497 176.4 11.5 176 37.4
2011-11-10 14:18:12 51°29.153 2°23.515 177.8 11.4 178 33.1
2011-11-10 14:19:12 51°28.964 2°23.511 179.7 11.3 178 33.6
2011-11-10 14:20:12 51°28.777 2°23.529 178.5 11.2 177 28.8
2011-11-10 14:21:12 51°28.592 2°23.529 178.9 11.2 177 25.4
2011-11-10 14:22:12 51°28.419 2°23.614 145.5 11.4 138 26.6
2011-11-10 14:23:12 51°28.298 2°23.868 126.6 12.1 124 22.8
2011-11-10 14:24:12 51°28.179 2°24.13 131.4 12.1 128 22.2
2011-11-10 14:25:12 51°28.051 2°24.384 130.4 12.3 128 25.8
2011-11-10 14:26:12 51°27.93 2°24.649 125.7 12.4 124 36.2
2011-11-10 14:27:12 51°27.809 2°24.912 130.7 12.2 128 36.5
2011-11-10 14:28:12 51°27.684 2°25.167 131.5 12.1 129 36
2011-11-10 14:29:12 51°27.571 2°25.437 127.3 12.2 124 36.1
2011-11-10 14:30:12 51°27.452 2°25.699 132 12.1 128 35.6
2011-11-10 14:31:12 51°27.342 2°25.972 126 12.2 122 35.4
2011-11-10 14:32:12 51°27.22 2°26.228 134.4 12 131 31.5
2011-11-10 14:33:12 51°27.089 2°26.471 134.7 12 133 26.5
2011-11-10 14:34:12 51°26.957 2°26.713 132.2 12.1 130 24.7
2011-11-10 14:35:12 51°26.828 2°26.96 131 12.1 127 31.5
2011-11-10 14:36:12 51°26.706 2°27.219 129.3 12.2 128 35.4
2011-11-10 14:37:12 51°26.584 2°27.477 129.8 12.2 125 35.4
2011-11-10 14:38:12 51°26.457 2°27.727 134.6 12 131 35.5
2011-11-10 14:39:12 51°26.33 2°27.976 133.4 12.1 129 34.5
2011-11-10 14:40:12 51°26.207 2°28.231 133.1 12 132 34.7
2011-11-10 14:41:12 51°26.073 2°28.468 133.6 12 131 33.3
2011-11-10 14:42:12 51°25.952 2°28.725 128.6 12.1 126 22
2011-11-10 14:43:12 51°25.829 2°28.975 129.8 11.8 128 12.2
2011-11-10 14:44:12 51°25.701 2°29.214 133.5 12 133 14.4
2011-11-10 14:45:12 51°25.563 2°29.447 134 12 133 25.5
2011-11-10 14:46:12 51°25.424 2°29.681 134.8 12.1 134 32.2
2011-11-10 14:47:12 51°25.296 2°29.933 131.3 12.2 128 33.2
2011-11-10 14:48:12 51°25.17 2°30.188 129.9 12.2 127 33.7
2011-11-10 14:49:12 51°25.045 2°30.441 135.4 12 132 33.6
2011-11-10 14:50:12 51°24.912 2°30.683 134.5 12.1 130 34.5
2011-11-10 14:51:12 51°24.79 2°30.942 128.3 12.1 125 35.4
2011-11-10 14:52:12 51°24.663 2°31.19 134.8 12.1 130 34.7
2011-11-10 14:53:12 51°24.54 2°31.445 129.4 12.1 125 35.1
2011-11-10 14:54:12 51°24.419 2°31.707 131 12.2 129 30.8
2011-11-10 14:55:12 51°24.287 2°31.951 132.9 12.2 129 25.8
2011-11-10 14:56:12 51°24.156 2°32.2 134.6 12.2 132 22
2011-11-10 14:57:12 51°24.02 2°32.442 132 12.3 128 19.1
2011-11-10 14:58:12 51°23.89 2°32.697 134.8 12.3 131 29.6
2011-11-10 14:59:12 51°23.756 2°32.945 130.4 12.4 128 31.9
2011-11-10 15:00:12 51°23.625 2°33.198 133.6 12.3 131 31.6
2011-11-10 15:01:12 51°23.497 2°33.453 129.6 12.3 128 32.3
2011-11-10 15:02:12 51°23.363 2°33.699 135.2 12.3 134 32.8
2011-11-10 15:03:12 51°23.224 2°33.934 131.1 12.1 130 32.1
2011-11-10 15:04:12 51°23.093 2°34.181 133.2 12.2 132 33.9
2011-11-10 15:05:12 51°22.966 2°34.432 129.4 12.1 129 33.2
2011-11-10 15:06:12 51°22.83 2°34.668 136.2 12.1 135 31.2
2011-11-10 15:07:12 51°22.703 2°34.916 129.5 12 127 24.9
2011-11-10 15:08:12 51°22.579 2°35.165 130.8 12 130 25.1
2011-11-10 15:09:12 51°22.441 2°35.396 135.4 12 134 26.9
2011-11-10 15:10:12 51°22.311 2°35.642 129.5 12.1 127 28.4
2011-11-10 15:11:12 51°22.19 2°35.9 130.3 12.1 127 31.3
2011-11-10 15:12:12 51°22.065 2°36.153 131.5 12.2 128 31.3
2011-11-10 15:13:12 51°21.933 2°36.395 135.8 12.1 134 32.2
2011-11-10 15:14:12 51°21.791 2°36.624 135 12.2 134 31
2011-11-10 15:15:12 51°21.658 2°36.867 129.3 12.2 129 32.1
2011-11-10 15:16:12 51°21.529 2°37.116 128.9 12.2 128 28.7
2011-11-10 15:17:12 51°21.402 2°37.366 130 12 130 25.1
2011-11-10 15:18:12 51°21.261 2°37.594 135.7 12.1 134 26
2011-11-10 15:19:12 51°21.127 2°37.834 130.7 12 130 26.2
2011-11-10 15:20:12 51°20.996 2°38.076 135.1 12.1 135 25.5
2011-11-10 15:21:12 51°20.854 2°38.303 134.4 12 134 24.8
2011-11-10 15:22:12 51°20.725 2°38.549 130.8 12.1 131 23.9
2011-11-10 15:23:12 51°20.586 2°38.78 133.7 12.1 132 25.1
2011-11-10 15:24:12 51°20.45 2°39.017 135.1 12.1 134 24.7
2011-11-10 15:25:12 51°20.322 2°39.261 128.4 11.8 128 25.3
2011-11-10 15:26:12 51°20.194 2°39.503 129.8 11.9 130 27.2
2011-11-10 15:27:12 51°20.064 2°39.745 132.3 12 133 28.9
2011-11-10 15:28:12 51°19.924 2°39.974 133.6 12 133 28.9
2011-11-10 15:29:12 51°19.792 2°40.214 131.5 11.9 129 28.6
2011-11-10 15:30:12 51°19.656 2°40.448 135.8 12 135 20.4
2011-11-10 15:31:12 51°19.526 2°40.685 131.1 11.9 130 16
2011-11-10 15:32:12 51°19.388 2°40.913 133.7 12 132 21.1
2011-11-10 15:33:12 51°19.263 2°41.162 129.5 12 128 19
2011-11-10 15:34:12 51°19.134 2°41.407 130 12 131 19.9
2011-11-10 15:35:12 51°18.997 2°41.645 136.2 12.1 137 20
2011-11-10 15:36:12 51°18.852 2°41.868 133 12.1 132 22.2
2011-11-10 15:37:12 51°18.722 2°42.111 128.6 12 127 23.5
2011-11-10 15:38:12 51°18.606 2°42.372 125.2 12.1 126 24.1
2011-11-10 15:39:12 51°18.472 2°42.614 134.8 12.2 135 23.9
2011-11-10 15:40:12 51°18.337 2°42.854 130.7 12.2 133 24.5
2011-11-10 15:41:12 51°18.19 2°43.079 137.7 12.2 136 23.7
2011-11-10 15:42:12 51°18.04 2°43.296 136.5 12.1 138 19.2
2011-11-10 15:43:12 51°17.898 2°43.512 132.2 11.5 132 11.7
2011-11-10 15:44:12 51°17.763 2°43.736 135.9 11.7 139 13.3
2011-11-10 15:45:12 51°17.623 2°43.953 130.2 11.9 132 16.5
2011-11-10 15:46:12 51°17.474 2°44.159 141.8 11.9 144 17.5
2011-11-10 15:47:12 51°17.324 2°44.362 136.5 11.9 138 16.4
2011-11-10 15:48:12 51°17.165 2°44.556 143.4 12 146 16.7
2011-11-10 15:49:12 51°17.003 2°44.742 142.3 12 144 15.2
2011-11-10 15:50:12 51°16.85 2°44.944 137.3 12 139 12.2
2011-11-10 15:51:12 51°16.692 2°45.136 141.4 11.8 144 11.9
2011-11-10 15:52:12 51°16.543 2°45.34 134.4 11.8 136 12.1
2011-11-10 15:53:12 51°16.393 2°45.543 142.2 11.8 143 11.3
2011-11-10 15:54:12 51°16.255 2°45.759 127.6 11.8 127 10.8
2011-11-10 15:55:12 51°16.154 2°46.024 114.5 11.7 112 11.5
2011-11-10 15:56:12 51°16.092 2°46.32 109 11.8 110 12.9
2011-11-10 15:57:12 51°16.018 2°46.612 111.2 11.9 113 15.2
2011-11-10 15:58:12 51°15.95 2°46.91 108.7 12 110 16.8
2011-11-10 15:59:12 51°15.872 2°47.204 111.8 12 115 16.9
2011-11-10 16:00:12 51°15.792 2°47.492 109 11.9 112 15.4
2011-11-10 16:01:12 51°15.72 2°47.787 109.8 11.9 112 14
2011-11-10 16:02:12 51°15.644 2°48.078 112.8 11.9 115 12.1
2011-11-10 16:03:12 51°15.564 2°48.364 110.3 11.7 113 10.8
2011-11-10 16:04:12 51°15.503 2°48.657 104.2 11.6 107 10.7
2011-11-10 16:05:12 51°15.442 2°48.951 106.3 11.8 110 12.7
2011-11-10 16:06:12 51°15.372 2°49.244 109.7 11.8 114 13.2
2011-11-10 16:07:12 51°15.288 2°49.526 112.7 11.7 116 13.1
2011-11-10 16:08:12 51°15.214 2°49.813 104.6 11.7 107 13.2
2011-11-10 16:09:12 51°15.168 2°50.114 98.8 11.7 100 13
2011-11-10 16:10:12 51°15.131 2°50.416 103.3 11.6 107 12.8
2011-11-10 16:11:12 51°15.079 2°50.712 98.8 11.5 101 12.7
2011-11-10 16:12:12 51°15.042 2°51.014 101.7 11.6 106 12.3
2011-11-10 16:13:12 51°14.982 2°51.309 103.3 11.7 107 11.7
2011-11-10 16:14:12 51°14.931 2°51.606 97.7 11.6 101 11.2
2011-11-10 16:15:12 51°14.879 2°51.903 103.9 11.6 108 10.6
2011-11-10 16:16:12 51°14.825 2°52.197 102.1 11.6 105 10.1
2011-11-10 16:17:12 51°14.783 2°52.495 99.6 11.5 103 9.8
2011-11-10 16:18:12 51°14.745 2°52.794 95.5 11.5 98 9.5
2011-11-10 16:19:12 51°14.732 2°53.097 88.3 11.5 89 9.3
2011-11-10 16:20:12 51°14.737 2°53.401 87.6 11.4 88 9.2
2011-11-10 16:21:12 51°14.736 2°53.7 90.7 11.2 91 9.3
2011-11-10 16:22:12 51°14.724 2°53.998 94.7 11.4 97 9.7
2011-11-10 16:23:12 51°14.685 2°54.292 100.1 11.3 103 9.9
2011-11-10 16:24:12 51°14.638 2°54.581 100.2 11.2 106 10.2
2011-11-10 16:25:12 51°14.57 2°54.86 110.8 11.3 116 11.5
2011-11-10 16:26:12 51°14.446 2°55.088 141.3 11.5 143 10.6
2011-11-10 16:27:13 51°14.289 2°55.264 143.4 10.7 146 10.3
2011-11-10 16:28:15 51°14.14 2°55.411 149.9 9.9 152 10.6
2011-11-10 16:29:13 51°14.01 2°55.503 155.7 7.8 158 11.6
2011-11-10 16:30:13 51°13.912 2°55.568 155.2 6.1 157 11.3
2011-11-10 16:31:16 51°13.81 2°55.645 147.8 6.7 151 -999
2011-11-10 16:32:15 51°13.728 2°55.753 129 6 131 -999
2011-11-10 16:33:16 51°13.679 2°55.859 121.4 4.1 123 -999
2011-11-10 16:34:16 51°13.65 2°55.946 111.5 3.4 112 -999
2011-11-10 16:35:15 51°13.636 2°56.012 107.8 1 106 -999